Flight Track Log - Related Links

Times and Time Zones

All times are in EDT time to prevent confusion due to time zone crossing. See the AAL297 flight status page for this flight to view local times or setup timezone preferences in your user account.


Time Position Orientation Groundspeed Altitude Reporting Facility
EDT Latitude Longitude Course Direction KTS MPH feet Rate Location/Type
Sun 17:36:44 32.8833 -97.0500 292° West 164 189 1,300  Level Dallas / Fort Worth TRACON
Sun 17:37:14 32.8500 -97.0500 180° South 169 194 2,300 1,667 Climbing Dallas / Fort Worth TRACON
Sun 17:38:14 32.8000 -97.0500 180° South 246 283 3,800 2,150 Climbing Dallas / Fort Worth TRACON
Sun 17:39:00 32.6857 -97.2548 301° West  Level FlightAware Approximate
Sun 17:39:14 32.7333 -97.0500 180° South 252 290 6,600  Level Dallas / Fort Worth TRACON
Sun 17:40:00 32.7365 -97.3835 293° West  Level FlightAware Approximate
Sun 17:40:54 32.7036 -97.1789 255° West 321 369 10,700  Level Fort Worth Center
Sun 17:41:00 32.7828 -97.5149 292° West  Level FlightAware Approximate
Sun 17:41:54 32.7353 -97.2850 290° West 300 345 13,600  Level Fort Worth Center
Sun 17:42:00 32.8270 -97.6474 292° West  Level FlightAware Approximate
Sun 17:42:54 32.7603 -97.3814 287° West 330 380 16,800  Level Fort Worth Center
Sun 17:48:17 32.8630 -98.1020 287° West 444 511 31,400 2,612 Climbing FlightAware ADS-B
Sun 17:48:57 32.8620 -98.1980 269° West 451 519 32,600 1,976 Climbing FlightAware ADS-B
Sun 17:49:42 32.8610 -98.3130 269° West 451 519 34,200 1,765 Climbing FlightAware ADS-B
Sun 17:50:22 32.8600 -98.4130 269° West 460 529 35,100 115 Climbing FlightAware ADS-B
Sun 18:40:07 34.3180 -105.5490 281° West 444 511 40,000 97 Climbing FlightAware ADS-B
Sun 18:40:42 34.3210 -105.6300 273° West 444 511 40,000  Level FlightAware ADS-B
Sun 18:41:22 34.3260 -105.7330 273° West 443 510 40,000  Level FlightAware ADS-B
Sun 18:42:12 34.3280 -105.8560 271° West 443 510 40,000  Level FlightAware ADS-B
Sun 18:42:57 34.3310 -105.9710 272° West 443 510 40,000  Level FlightAware ADS-B
Sun 18:43:37 34.3330 -106.0660 271° West 443 510 40,000  Level FlightAware ADS-B
Sun 18:44:17 34.3340 -106.1680 271° West 444 511 40,000  Level FlightAware ADS-B
Sun 18:45:02 34.3360 -106.2780 271° West 444 511 40,000  Level FlightAware ADS-B
Sun 18:45:42 34.3380 -106.3770 271° West 445 512 40,000  Level FlightAware ADS-B
Sun 18:46:42 34.3400 -106.5190 271° West 444 511 40,000  Level FlightAware ADS-B
Sun 18:47:22 34.3410 -106.6150 271° West 445 512 40,000  Level FlightAware ADS-B
Sun 18:47:57 34.3410 -106.6970 270° West 445 512 40,000  Level FlightAware ADS-B
Sun 18:48:47 34.3430 -106.8380 271° West 445 512 40,000  Level FlightAware ADS-B
Sun 18:49:27 34.3440 -106.9350 271° West 446 513 40,000  Level FlightAware ADS-B
Sun 18:50:07 34.3450 -107.0370 271° West 447 514 40,000  Level FlightAware ADS-B
Sun 18:50:37 34.3460 -107.1120 271° West 448 516 40,000  Level FlightAware ADS-B
Sun 18:51:22 34.3470 -107.2220 271° West 449 517 40,000  Level FlightAware ADS-B
Sun 18:52:02 34.3480 -107.3230 271° West 448 516 40,000  Level FlightAware ADS-B
Sun 18:52:47 34.3480 -107.4380 270° West 447 514 40,000  Level FlightAware ADS-B
Sun 18:53:27 34.3490 -107.5370 271° West 448 516 40,000  Level FlightAware ADS-B
Sun 18:54:07 34.3490 -107.6370 270° West 448 516 40,000  Level FlightAware ADS-B
Sun 18:54:52 34.3500 -107.7470 271° West 449 517 40,000  Level FlightAware ADS-B
Sun 18:55:47 34.3500 -107.8740 270° West 449 517 40,000  Level FlightAware ADS-B
Sun 18:56:27 34.3500 -107.9590 270° West 449 517 40,000  Level FlightAware ADS-B
Sun 18:57:07 34.3500 -108.0450 270° West 449 517 40,000  Level FlightAware ADS-B
Sun 18:57:47 34.3500 -108.1300 270° West 449 517 40,000  Level FlightAware ADS-B
Sun 18:58:37 34.3500 -108.3150 270° West 452 520 40,000  Level FlightAware ADS-B
Sun 18:59:17 34.3500 -108.4170 270° West 452 520 40,000  Level FlightAware ADS-B
Sun 18:59:52 34.3500 -108.5010 270° West 452 520 40,000  Level FlightAware ADS-B
Sun 19:00:32 34.3500 -108.6010 270° West 453 521 40,000  Level FlightAware ADS-B
Sun 19:01:22 34.3480 -108.7210 269° West 453 521 40,000  Level FlightAware ADS-B
Sun 19:02:12 34.3480 -108.8570 270° West 454 522 40,000  Level FlightAware ADS-B
Sun 19:02:52 34.3480 -108.9550 270° West 454 522 40,000  Level FlightAware ADS-B
Sun 19:03:37 34.3470 -109.0710 269° West 453 521 40,000  Level FlightAware ADS-B
Sun 19:04:27 34.3450 -109.1880 269° West 453 521 40,000  Level FlightAware ADS-B
Sun 19:05:07 34.3440 -109.2740 269° West 453 521 40,000  Level FlightAware ADS-B
Sun 19:05:57 34.3430 -109.3820 269° West 453 521 40,000  Level FlightAware ADS-B
Sun 19:06:37 34.3410 -109.4680 268° West 453 521 40,000  Level FlightAware ADS-B
Sun 19:07:17 34.3400 -109.5550 269° West 453 521 40,000  Level FlightAware ADS-B
Sun 19:07:57 34.3390 -109.6410 269° West 453 521 40,000  Level FlightAware ADS-B
Sun 19:08:37 34.3380 -109.7270 269° West 453 521 40,000  Level FlightAware ADS-B
Sun 19:09:27 34.3360 -109.8350 269° West 453 521 40,000  Level FlightAware ADS-B
Sun 19:10:07 34.3350 -109.9210 269° West 453 521 40,000  Level FlightAware ADS-B
Sun 19:10:47 34.3340 -110.0080 269° West 453 521 40,000  Level FlightAware ADS-B
Sun 19:11:27 34.3320 -110.0940 268° West 453 521 40,000  Level FlightAware ADS-B
Sun 19:12:07 34.3310 -110.1800 269° West 453 521 40,000  Level FlightAware ADS-B
Sun 19:12:57 34.3290 -110.2880 269° West 453 521 40,000  Level FlightAware ADS-B
Sun 19:13:37 34.3280 -110.3740 269° West 453 521 40,000  Level FlightAware ADS-B
Sun 19:14:57 34.3220 -110.7850 269° West 450 518 40,000  Level FlightAware ADS-B
Sun 19:15:42 34.3190 -110.8950 268° West 451 519 40,000  Level FlightAware ADS-B
Sun 19:16:37 34.3160 -111.0370 269° West 451 519 40,000  Level FlightAware ADS-B
Sun 19:17:22 34.3130 -111.1500 268° West 451 519 40,000  Level FlightAware ADS-B
Sun 19:18:02 34.3110 -111.2480 269° West 451 519 40,000  Level FlightAware ADS-B
Sun 19:18:47 34.3080 -111.3560 268° West 451 519 40,000  Level FlightAware ADS-B
Sun 19:19:27 34.3050 -111.4590 268° West 450 518 40,000  Level FlightAware ADS-B
Sun 19:20:07 34.3020 -111.5660 268° West 449 517 40,000  Level FlightAware ADS-B
Sun 19:20:52 34.2990 -111.6760 268° West 449 517 40,000  Level FlightAware ADS-B
Sun 19:21:32 34.2960 -111.7770 268° West 449 517 40,000  Level FlightAware ADS-B
Sun 19:22:12 34.2930 -111.8790 268° West 449 517 40,000  Level FlightAware ADS-B
Sun 19:22:57 34.2900 -111.9850 268° West 450 518 40,000  Level FlightAware ADS-B
Sun 19:23:37 34.2870 -112.0890 268° West 450 518 40,000  Level FlightAware ADS-B
Sun 19:24:17 34.2830 -112.1930 267° West 451 519 40,000  Level FlightAware ADS-B
Sun 19:25:02 34.2790 -112.3080 268° West 451 519 40,000  Level FlightAware ADS-B
Sun 19:25:42 34.2760 -112.4030 268° West 451 519 40,000  Level FlightAware ADS-B
Sun 19:26:27 34.2720 -112.5190 268° West 451 519 40,000  Level FlightAware ADS-B
Sun 19:27:07 34.2680 -112.6200 267° West 451 519 40,000  Level FlightAware ADS-B
Sun 19:27:52 34.2640 -112.7310 268° West 450 518 40,000  Level FlightAware ADS-B
Sun 19:28:32 34.2600 -112.8310 267° West 449 517 40,000  Level FlightAware ADS-B
Sun 19:29:27 34.2570 -112.9580 268° West 450 518 40,000  Level FlightAware ADS-B
Sun 19:30:12 34.2820 -113.0780 284° West 449 517 40,000  Level FlightAware ADS-B
Sun 19:30:47 34.2910 -113.1630 277° West 448 516 40,000  Level FlightAware ADS-B
Sun 19:31:47 34.2850 -113.3100 267° West 448 516 40,000  Level FlightAware ADS-B
Sun 19:32:27 34.2800 -113.4170 267° West 449 517 40,000  Level FlightAware ADS-B
Sun 19:33:27 34.2700 -113.5550 265° West 449 517 40,000  Level FlightAware ADS-B
Sun 19:34:07 34.2640 -113.6670 266° West 448 516 40,000  Level FlightAware ADS-B
Sun 19:34:47 34.2580 -113.7690 266° West 448 516 40,000  Level FlightAware ADS-B
Sun 19:35:32 34.2510 -113.8680 265° West 448 516 40,000  Level FlightAware ADS-B
Sun 19:36:27 34.2410 -114.0150 265° West 447 514 40,000  Level FlightAware ADS-B
Sun 19:37:12 34.2340 -114.1250 266° West 446 513 40,000  Level FlightAware ADS-B
Sun 19:37:52 34.2270 -114.2240 265° West 446 513 40,000  Level FlightAware ADS-B
Sun 19:38:32 34.2210 -114.3240 266° West 446 513 40,000  Level FlightAware ADS-B
Sun 19:39:17 34.2130 -114.4270 265° West 446 513 40,000  Level FlightAware ADS-B
Sun 19:39:57 34.2060 -114.5340 266° West 446 513 40,000  Level FlightAware ADS-B
Sun 19:40:32 34.2000 -114.6120 265° West 446 513 40,000  Level FlightAware ADS-B
Sun 19:41:22 34.1930 -114.7170 265° West 446 513 40,000  Level FlightAware ADS-B
Sun 19:42:02 34.1860 -114.8020 264° West 446 513 40,000  Level FlightAware ADS-B
Sun 19:42:42 34.1800 -114.8860 265° West 446 513 40,000  Level FlightAware ADS-B
Sun 19:43:22 34.1740 -114.9710 265° West 446 513 40,000  Level FlightAware ADS-B
Sun 19:44:12 34.1670 -115.0760 265° West 446 513 40,000  Level FlightAware ADS-B
Sun 19:44:52 34.1600 -115.1610 264° West 446 513 40,000 -4,200 Level FlightAware ADS-B
Sun 19:45:32 34.1430 -115.3840 265° West 483 556 34,400 -4,518 Descending FlightAware ADS-B
Sun 19:46:17 34.1330 -115.5130 265° West 479 551 33,600 -1,067 Descending FlightAware ADS-B
Sun 19:47:02 34.1240 -115.6260 265° West 462 532 32,800 -1,059 Descending FlightAware ADS-B
Sun 19:47:42 34.1150 -115.7280 264° West 451 519 32,100 -975 Descending FlightAware ADS-B
Sun 19:48:22 34.1040 -115.8280 262° West 444 511 31,500 -988 Descending FlightAware ADS-B
Sun 19:49:07 34.0880 -115.9350 260° West 438 504 30,700 -918 Descending FlightAware ADS-B
Sun 19:49:47 34.0730 -116.0330 260° West 432 497 30,200 -825 Descending FlightAware ADS-B
Sun 19:50:27 34.0590 -116.1260 260° West 431 496 29,600 -988 Descending FlightAware ADS-B
Sun 19:51:12 34.0430 -116.2350 260° West 425 489 28,800 -1,059 Descending FlightAware ADS-B
Sun 19:51:52 34.0290 -116.3270 260° West 422 486 28,100 -1,200 Descending FlightAware ADS-B
Sun 19:52:37 34.0130 -116.4300 259° West 423 487 27,100 -776 Descending FlightAware ADS-B
Sun 19:53:17 34.0020 -116.5220 262° West 421 484 27,000 -75 Descending FlightAware ADS-B
Sun 19:53:57 33.9950 -116.6150 265° West 421 484 27,000  Level FlightAware ADS-B
Sun 19:54:42 33.9870 -116.7210 265° West 421 484 27,000 -1,271 Level FlightAware ADS-B
Sun 19:55:22 33.9790 -116.8150 264° West 407 468 25,200 -3,106 Descending FlightAware ADS-B
Sun 19:56:07 33.9710 -116.9130 264° West 394 453 22,600 -3,459 Descending FlightAware ADS-B
Sun 19:56:47 33.9640 -116.9980 264° West 384 442 20,300 -3,388 Descending FlightAware ADS-B
Sun 19:57:32 33.9560 -117.0950 264° West 379 436 17,800 -2,329 Descending FlightAware ADS-B
Sun 19:58:12 33.9490 -117.1760 264° West 370 426 17,000 -1,275 Descending FlightAware ADS-B
Sun 19:58:52 33.9420 -117.2590 264° West 365 420 16,100 -1,482 Descending FlightAware ADS-B
Sun 19:59:37 33.9340 -117.3470 264° West 358 412 14,900 -1,271 Descending FlightAware ADS-B
Sun 20:00:17 33.9270 -117.4250 264° West 354 407 14,300 -847 Descending FlightAware ADS-B
Sun 20:01:02 33.9400 -117.5060 281° West 355 409 13,700 -873 Descending FlightAware ADS-B
Sun 20:01:12 33.9560 -117.5230 319° Northwest 346 398 13,500 -857 Descending FlightAware ADS-B
Sun 20:01:37 33.9840 -117.5580 314° West 349 402 13,200 -1,971 Descending FlightAware ADS-B
Sun 20:02:22 34.0180 -117.6310 299° West 323 372 11,200 -2,133 Descending FlightAware ADS-B
Sun 20:03:07 34.0210 -117.7050 273° West 293 337 10,000 -1,569 Descending FlightAware ADS-B
Sun 20:03:27 34.0180 -117.7360 263° West 294 338 9,500 -1,091 Descending FlightAware ADS-B
Sun 20:04:02 34.0130 -117.7950 264° West 287 330 9,000 -800 Descending FlightAware ADS-B
Sun 20:04:27 34.0090 -117.8330 263° West 281 323 8,700 -1,200 Descending FlightAware ADS-B
Sun 20:04:42 34.0070 -117.8570 264° West 278 320 8,200 -1,600 Descending FlightAware ADS-B
Sun 20:05:12 34.0020 -117.9030 263° West 272 313 7,500 -1,309 Descending FlightAware ADS-B
Sun 20:05:37 33.9990 -117.9400 264° West 268 308 7,000 -1,200 Descending FlightAware ADS-B
Sun 20:06:07 33.9940 -117.9840 262° West 264 304 6,400 -1,200 Descending FlightAware ADS-B
Sun 20:06:37 33.9900 -118.0250 263° West 229 264 5,800 -1,200 Descending FlightAware ADS-B
Sun 20:07:02 33.9870 -118.0550 263° West 224 258 5,300 -982 Descending FlightAware ADS-B
Sun 20:07:32 33.9840 -118.0900 264° West 220 253 4,900 -655 Descending FlightAware ADS-B
Sun 20:07:57 33.9800 -118.1230 262° West 219 252 4,700 -873 Descending FlightAware ADS-B
Sun 20:08:27 33.9770 -118.1590 264° West 208 239 4,100 -1,100 Descending FlightAware ADS-B
Sun 20:08:57 33.9740 -118.1900 263° West 206 237 3,600 -1,036 Descending FlightAware ADS-B
Sun 20:10:17 33.9650 -118.2780 263° West 184 212 2,200 -939 Descending FlightAware ADS-B
Sun 20:10:52 33.9620 -118.3050 262° West 163 188 1,800 -771 Descending FlightAware ADS-B
Sun 20:11:27 33.9590 -118.3310 262° West 136 157 1,300 -750 Descending FlightAware ADS-B
Sun 20:11:32 33.9590 -118.3320 270° West 133 153 1,300 -171 Level FlightAware ADS-B
Sun 20:12:02 33.9570 -118.3530 263° West 130 150 1,200 -667 Descending FlightAware ADS-B
Sun 20:13:02 33.9530 -118.3950 263° West 118 136 300 -635 Descending FlightAware ADS-B
Sun 20:13:27 33.9510 -118.4090 260° West 118 136 300  Level FlightAware ADS-B

Login

Don't have an account? Register now (free) for customized features, flight alerts, and more!